ARG1857 SAWG-SABE
Flight info
| Callsign | ARG1857 |
|---|---|
| Flight time | N/A |
| Altitude | 35000 |
| Route | IRAV2G IRAVU UT109 BITUT/N0451F370 UT109 VIE UW18 SANBU UT693 BCA UW22 VALOS VALOS9Q |
| Aircraft | B738/M-MSDFGHILRVW/LB1 |
Departure
| Time | 2026-04-25 19:29 |
|---|---|
| Airport | Piloto Civil Norberto Fernández International Airport (SAWG) |
Arrival
| Time | N/A |
|---|---|
| Airport | Aeroparque Jorge Newbery (SABE) |
| Time | Latitude | Longitude | Altitude | Speed | Heading |
|---|---|---|---|---|---|
| 2026-04-25 19:04 | -51.61185 | -69.30445 | 49 ft | 0 kts | 271° |
| 2026-04-25 19:19 | -51.61185 | -69.30425 | 47 ft | 4 kts | 271° |
| 2026-04-25 19:19 | -51.61185 | -69.30390 | 45 ft | 0 kts | 271° |
| 2026-04-25 19:22 | -51.61177 | -69.30410 | 47 ft | 1 kts | 320° |
| 2026-04-25 19:23 | -51.61157 | -69.30429 | 49 ft | 5 kts | 324° |
| 2026-04-25 19:23 | -51.61115 | -69.30504 | 49 ft | 4 kts | 310° |
| 2026-04-25 19:23 | -51.61096 | -69.30541 | 49 ft | 4 kts | 309° |
| 2026-04-25 19:24 | -51.61077 | -69.30577 | 49 ft | 4 kts | 312° |
| 2026-04-25 19:24 | -51.61051 | -69.30593 | 49 ft | 4 kts | 7° |
| 2026-04-25 19:24 | -51.61035 | -69.30455 | 49 ft | 10 kts | 86° |
| 2026-04-25 19:25 | -51.61022 | -69.30163 | 49 ft | 14 kts | 85° |
| 2026-04-25 19:25 | -51.61014 | -69.30012 | 45 ft | 13 kts | 86° |
| 2026-04-25 19:25 | -51.61007 | -69.29867 | 49 ft | 13 kts | 85° |
| 2026-04-25 19:26 | -51.61000 | -69.29726 | 49 ft | 12 kts | 85° |
| 2026-04-25 19:26 | -51.60993 | -69.29582 | 49 ft | 13 kts | 85° |
| 2026-04-25 19:26 | -51.60986 | -69.29441 | 49 ft | 13 kts | 84° |
| 2026-04-25 19:26 | -51.60979 | -69.29302 | 49 ft | 12 kts | 85° |
| 2026-04-25 19:27 | -51.60973 | -69.29165 | 49 ft | 12 kts | 85° |
| 2026-04-25 19:27 | -51.60970 | -69.29120 | 47 ft | 12 kts | 86° |
| 2026-04-25 19:27 | -51.60960 | -69.28902 | 49 ft | 11 kts | 86° |
| 2026-04-25 19:27 | -51.60952 | -69.28776 | 49 ft | 11 kts | 79° |
| 2026-04-25 19:28 | -51.60892 | -69.28714 | 49 ft | 11 kts | 355° |
| 2026-04-25 19:28 | -51.60815 | -69.28725 | 51 ft | 11 kts | 354° |
| 2026-04-25 19:28 | -51.60765 | -69.28800 | 52 ft | 13 kts | 275° |
| 2026-04-25 19:28 | -51.60796 | -69.29338 | 50 ft | 86 kts | 265° |
| 2026-04-25 19:29 | -51.60853 | -69.30663 | 66 ft | 148 kts | 261° |
| 2026-04-25 19:29 | -51.60874 | -69.32437 | 592 ft | 155 kts | 262° |
| 2026-04-25 19:29 | -51.60878 | -69.34113 | 1467 ft | 155 kts | 270° |
| 2026-04-25 19:29 | -51.60314 | -69.35836 | 1795 ft | 197 kts | 307° |
| 2026-04-25 19:30 | -51.58983 | -69.36969 | 1878 ft | 240 kts | 345° |
| 2026-04-25 19:30 | -51.57256 | -69.36773 | 2141 ft | 259 kts | 10° |
| 2026-04-25 19:30 | -51.55507 | -69.36011 | 2304 ft | 277 kts | 14° |
| 2026-04-25 19:30 | -51.53629 | -69.35091 | 2823 ft | 283 kts | 14° |
| 2026-04-25 19:31 | -51.51747 | -69.34202 | 3461 ft | 282 kts | 13° |
| 2026-04-25 19:31 | -51.49841 | -69.33401 | 4004 ft | 283 kts | 11° |
| 2026-04-25 19:31 | -51.47929 | -69.32680 | 4874 ft | 281 kts | 11° |
| 2026-04-25 19:31 | -51.46046 | -69.31969 | 5871 ft | 277 kts | 12° |
| 2026-04-25 19:32 | -51.44169 | -69.31196 | 6642 ft | 281 kts | 14° |
| 2026-04-25 19:32 | -51.42257 | -69.30371 | 7309 ft | 287 kts | 14° |
| 2026-04-25 19:32 | -51.40368 | -69.29595 | 8228 ft | 282 kts | 13° |
| 2026-04-25 19:32 | -51.39722 | -69.29331 | 8481 ft | 285 kts | 13° |
| 2026-04-25 19:33 | -51.36387 | -69.27761 | 9347 ft | 311 kts | 25° |
| 2026-04-25 19:33 | -51.34459 | -69.26178 | 10167 ft | 312 kts | 31° |
| 2026-04-25 19:33 | -51.32515 | -69.24393 | 10519 ft | 334 kts | 32° |
| 2026-04-25 19:33 | -51.30441 | -69.22460 | 10758 ft | 356 kts | 31° |
| 2026-04-25 19:34 | -51.28249 | -69.20446 | 11188 ft | 371 kts | 31° |
| 2026-04-25 19:34 | -51.25987 | -69.18402 | 11873 ft | 377 kts | 31° |
| 2026-04-25 19:34 | -51.23689 | -69.16353 | 12689 ft | 379 kts | 30° |
| 2026-04-25 19:34 | -51.21378 | -69.14311 | 13510 ft | 381 kts | 30° |
| 2026-04-25 19:35 | -51.19053 | -69.12265 | 14275 ft | 383 kts | 30° |
| 2026-04-25 19:35 | -51.16714 | -69.10213 | 15085 ft | 383 kts | 30° |
| 2026-04-25 19:35 | -51.14370 | -69.08161 | 15727 ft | 388 kts | 31° |
| 2026-04-25 19:35 | -51.11986 | -69.06067 | 16380 ft | 393 kts | 31° |
| 2026-04-25 19:36 | -51.09581 | -69.03959 | 17063 ft | 396 kts | 30° |
| 2026-04-25 19:36 | -51.07157 | -69.01840 | 17703 ft | 401 kts | 31° |
| 2026-04-25 19:36 | -51.04697 | -68.99693 | 18320 ft | 405 kts | 30° |
| 2026-04-25 19:36 | -51.02219 | -68.97533 | 18918 ft | 408 kts | 30° |
| 2026-04-25 19:37 | -50.99722 | -68.95357 | 19504 ft | 410 kts | 30° |
| 2026-04-25 19:37 | -50.97211 | -68.93172 | 20068 ft | 414 kts | 30° |
| 2026-04-25 19:37 | -50.94673 | -68.90966 | 20604 ft | 418 kts | 30° |
| 2026-04-25 19:37 | -50.92109 | -68.88739 | 21155 ft | 421 kts | 30° |
| 2026-04-25 19:38 | -50.89535 | -68.86507 | 21709 ft | 424 kts | 30° |
| 2026-04-25 19:38 | -50.86942 | -68.84257 | 22376 ft | 424 kts | 29° |
| 2026-04-25 19:38 | -50.85239 | -68.82782 | 22943 ft | 420 kts | 29° |
| 2026-04-25 19:38 | -50.82677 | -68.80570 | 23573 ft | 421 kts | 29° |
| 2026-04-25 19:39 | -50.80115 | -68.78360 | 24217 ft | 417 kts | 28° |
| 2026-04-25 19:39 | -50.77576 | -68.76171 | 24806 ft | 416 kts | 28° |
| 2026-04-25 19:39 | -50.74115 | -68.73438 | 24831 ft | 422 kts | 24° |
| 2026-04-25 19:39 | -50.71415 | -68.71617 | 24840 ft | 424 kts | 22° |
| 2026-04-25 19:40 | -50.68694 | -68.69874 | 24841 ft | 421 kts | 21° |
| 2026-04-25 19:40 | -50.66862 | -68.68712 | 24845 ft | 419 kts | 21° |
| 2026-04-25 19:40 | -50.64160 | -68.66989 | 24872 ft | 422 kts | 21° |
| 2026-04-25 19:40 | -50.61418 | -68.65223 | 25054 ft | 431 kts | 22° |
| 2026-04-25 19:41 | -50.58648 | -68.63419 | 25176 ft | 441 kts | 22° |
| 2026-04-25 19:41 | -50.55748 | -68.61517 | 25360 ft | 450 kts | 22° |
| 2026-04-25 19:41 | -50.52841 | -68.59596 | 25582 ft | 457 kts | 21° |
| 2026-04-25 19:41 | -50.50892 | -68.58311 | 25678 ft | 462 kts | 21° |
| 2026-04-25 19:42 | -50.46938 | -68.55706 | 25974 ft | 469 kts | 21° |
| 2026-04-25 19:42 | -50.43913 | -68.53716 | 26214 ft | 474 kts | 21° |
| 2026-04-25 19:42 | -50.40861 | -68.51709 | 26558 ft | 476 kts | 21° |
| 2026-04-25 19:42 | -50.37797 | -68.49697 | 26827 ft | 479 kts | 21° |
| 2026-04-25 19:43 | -50.34719 | -68.47679 | 27152 ft | 481 kts | 21° |
| 2026-04-25 19:43 | -50.31624 | -68.45652 | 27509 ft | 482 kts | 21° |
| 2026-04-25 19:43 | -50.28539 | -68.43635 | 28029 ft | 480 kts | 21° |
| 2026-04-25 19:43 | -50.25464 | -68.41627 | 28490 ft | 479 kts | 22° |
| 2026-04-25 19:44 | -50.22380 | -68.39617 | 28748 ft | 482 kts | 21° |
| 2026-04-25 19:44 | -50.19288 | -68.37602 | 29342 ft | 477 kts | 21° |
| 2026-04-25 19:44 | -50.16257 | -68.35629 | 30110 ft | 469 kts | 21° |
| 2026-04-25 19:44 | -50.13237 | -68.33669 | 30344 ft | 472 kts | 21° |
| 2026-04-25 19:45 | -50.07107 | -68.29703 | 30653 ft | 480 kts | 21° |
| 2026-04-25 19:45 | -50.04038 | -68.27720 | 31075 ft | 477 kts | 21° |
| 2026-04-25 19:45 | -50.00972 | -68.25741 | 31374 ft | 478 kts | 21° |
| 2026-04-25 19:46 | -49.97892 | -68.23756 | 31569 ft | 481 kts | 21° |
| 2026-04-25 19:46 | -49.94795 | -68.21763 | 31742 ft | 483 kts | 21° |
| 2026-04-25 19:46 | -49.91683 | -68.19763 | 31972 ft | 485 kts | 21° |
| 2026-04-25 19:46 | -49.88563 | -68.17760 | 32287 ft | 485 kts | 21° |
| 2026-04-25 19:47 | -49.85454 | -68.15766 | 32663 ft | 483 kts | 21° |
| 2026-04-25 19:47 | -49.82351 | -68.13779 | 33010 ft | 482 kts | 21° |
| 2026-04-25 19:47 | -49.79244 | -68.11793 | 33188 ft | 485 kts | 21° |
| 2026-04-25 19:47 | -49.76121 | -68.09801 | 33394 ft | 487 kts | 21° |
| 2026-04-25 19:48 | -49.72989 | -68.07805 | 33661 ft | 487 kts | 21° |
| 2026-04-25 19:48 | -49.69857 | -68.05811 | 33915 ft | 487 kts | 21° |
| 2026-04-25 19:48 | -49.66724 | -68.03819 | 34141 ft | 486 kts | 21° |
| 2026-04-25 19:48 | -49.63596 | -68.01833 | 34387 ft | 486 kts | 21° |
| 2026-04-25 19:49 | -49.60467 | -67.99850 | 34592 ft | 487 kts | 21° |
| 2026-04-25 19:49 | -49.58390 | -67.98535 | 34723 ft | 487 kts | 21° |
| 2026-04-25 19:49 | -49.54195 | -67.95882 | 34824 ft | 490 kts | 20° |
| 2026-04-25 19:49 | -49.51082 | -67.93917 | 34829 ft | 489 kts | 20° |
| 2026-04-25 19:50 | -49.42730 | -67.88656 | 34823 ft | 481 kts | 20° |